EDFM/MHG METAR and TAF weather

Enter ICAO airport designator
Station Type Date Time Source
EDFM METAR 2020/09/22 18:20 UTC NOAA

EDFM 221820Z 16002KT CAVOK 22/11 Q1008


Station Type Date Time Source
EDFM Decoded METAR 2020/09/22 18:20 UTC NOAA

Baden Wurttemberg, Neuostheim, Germany (EDFM) 49-28-21N 008-30-56E
Sep 22, 2020 - 02:20 PM EDT / 2020.09.22 1820 UTC
Wind: from the SSE (160 degrees) at 2 MPH (2 KT):0
Visibility: greater than 7 mile(s):0
Temperature: 71 F (22 C)
Dew Point: 51 F (11 C)
Relative Humidity: 49%
Pressure (altimeter): 29.77 in. Hg (1008 hPa)
ob: EDFM 221820Z 16002KT CAVOK 22/11 Q1008
cycle: 18

Station Type Date Time Source
EDFM TAF 2012/03/06 06:30 UTC NOAA

TAF EDFM 060519Z 0606/0621 15004KT 9999 FEW040

Example: see airport list